createdAt,value
2018-12-24T00:00:27.913Z,6.26
2018-12-24T00:05:32.128Z,6.07
2018-12-24T00:10:36.435Z,5.85
2018-12-24T00:15:40.745Z,5.80
2018-12-24T00:20:44.897Z,6.09
2018-12-24T00:25:49.190Z,6.16
2018-12-24T00:30:53.624Z,6.08
2018-12-24T00:35:57.813Z,6.33
2018-12-24T00:41:02.010Z,6.15
2018-12-24T00:46:06.344Z,6.33
2018-12-24T00:51:10.533Z,6.63
2018-12-24T00:56:14.976Z,6.46
2018-12-24T01:01:19.206Z,6.63
2018-12-24T01:06:23.461Z,6.38
2018-12-24T01:11:27.638Z,6.25
2018-12-24T01:16:31.876Z,6.17
2018-12-24T01:21:36.032Z,6.05
2018-12-24T01:26:40.207Z,6.05
2018-12-24T01:31:44.408Z,6.07
2018-12-24T01:36:48.547Z,5.70
2018-12-24T01:41:52.730Z,5.76
2018-12-24T01:46:56.866Z,5.62
2018-12-24T01:52:01.125Z,5.68
2018-12-24T01:57:05.363Z,5.60
2018-12-24T02:02:09.556Z,5.79
2018-12-24T02:07:13.731Z,5.80
2018-12-24T02:12:17.877Z,5.65
2018-12-24T02:17:22.030Z,5.95
2018-12-24T02:22:26.311Z,5.81
2018-12-24T02:27:30.497Z,5.82
2018-12-24T02:32:34.678Z,5.76
2018-12-24T02:37:38.832Z,5.75
2018-12-24T02:42:52.047Z,5.77
2018-12-24T02:47:48.852Z,5.62
2018-12-24T02:52:53.012Z,5.62
2018-12-24T02:57:57.145Z,5.61
2018-12-24T03:03:01.388Z,5.51
2018-12-24T03:08:05.575Z,5.61
2018-12-24T03:13:09.763Z,5.65
2018-12-24T03:18:13.913Z,5.74
2018-12-24T03:23:18.050Z,5.73
2018-12-24T03:28:22.212Z,5.66
2018-12-24T03:33:26.357Z,5.77
2018-12-24T03:38:30.508Z,5.62
2018-12-24T03:43:34.650Z,5.70
2018-12-24T03:48:38.919Z,5.63
2018-12-24T03:53:43.156Z,5.75
2018-12-24T03:58:47.324Z,5.76
2018-12-24T04:03:51.493Z,5.80
2018-12-24T04:08:55.709Z,5.76
2018-12-24T04:13:59.880Z,5.86
2018-12-24T04:19:04.086Z,5.74
2018-12-24T04:24:08.265Z,5.68
2018-12-24T04:29:12.425Z,5.89
2018-12-24T04:34:16.651Z,5.89
2018-12-24T04:39:20.826Z,5.81
2018-12-24T04:44:25.018Z,5.80
2018-12-24T04:49:29.215Z,5.85
2018-12-24T04:54:33.358Z,6.04
2018-12-24T04:59:37.494Z,5.99
2018-12-24T05:04:41.663Z,6.10
2018-12-24T05:09:45.836Z,6.19
2018-12-24T05:14:50.013Z,5.62
2018-12-24T05:19:54.165Z,5.54
2018-12-24T05:24:58.488Z,5.26
2018-12-24T05:30:02.651Z,4.97
2018-12-24T05:35:06.857Z,4.86
2018-12-24T05:40:10.983Z,5.04
2018-12-24T05:45:15.182Z,5.13
2018-12-24T05:50:19.484Z,5.06
2018-12-24T05:55:23.680Z,5.26
2018-12-24T06:00:27.836Z,5.39
2018-12-24T06:05:32.006Z,5.22
2018-12-24T06:10:36.199Z,5.40
2018-12-24T06:15:40.328Z,5.35
2018-12-24T06:20:44.517Z,5.46
2018-12-24T06:25:48.713Z,5.63
2018-12-24T06:30:52.881Z,5.38
2018-12-24T06:35:57.105Z,5.39
2018-12-24T06:41:01.260Z,5.49
2018-12-24T06:46:05.491Z,5.41
2018-12-24T06:51:09.643Z,5.49
2018-12-24T06:56:13.832Z,5.53
2018-12-24T07:01:17.990Z,5.63
2018-12-24T07:06:22.205Z,5.59
2018-12-24T07:11:26.367Z,5.78
2018-12-24T07:16:30.566Z,5.64
2018-12-24T07:21:34.741Z,5.73
2018-12-24T07:26:38.897Z,5.48
2018-12-24T07:31:43.064Z,5.53
2018-12-24T07:36:47.361Z,5.33
2018-12-24T07:41:51.501Z,5.48
2018-12-24T07:46:55.651Z,5.45
2018-12-24T07:51:59.828Z,5.57
2018-12-24T07:57:04.012Z,5.51
2018-12-24T08:02:08.161Z,5.57
2018-12-24T08:07:12.332Z,5.58
2018-12-24T08:12:16.469Z,5.20
2018-12-24T08:17:20.765Z,5.47
2018-12-24T08:22:25.295Z,5.52
2018-12-24T08:27:29.475Z,5.27
2018-12-24T08:32:33.648Z,5.53
2018-12-24T08:37:37.824Z,5.54
2018-12-24T08:42:41.976Z,5.41
2018-12-24T08:47:46.106Z,5.73
2018-12-24T08:52:50.237Z,5.44
2018-12-24T08:57:54.396Z,5.40
2018-12-24T09:02:58.561Z,5.52
2018-12-24T09:08:02.738Z,5.44
2018-12-24T09:13:06.887Z,5.49
2018-12-24T09:18:11.054Z,5.30
2018-12-24T09:23:15.198Z,5.47
2018-12-24T09:28:19.335Z,5.66
2018-12-24T09:33:23.494Z,5.82
2018-12-24T09:38:27.665Z,6.03
2018-12-24T09:43:31.803Z,5.99
2018-12-24T09:49:02.477Z,5.75
2018-12-24T09:54:04.475Z,5.36
2018-12-24T09:59:08.741Z,5.23
2018-12-24T10:04:30.109Z,4.88
2018-12-24T10:09:34.359Z,5.05
2018-12-24T10:14:38.597Z,5.35
2018-12-24T10:19:42.759Z,5.35
2018-12-24T10:24:46.955Z,5.65
2018-12-24T10:29:51.138Z,5.17
2018-12-24T10:34:55.340Z,4.86
2018-12-24T10:40:05.432Z,4.81
2018-12-24T10:45:16.309Z,4.81
2018-12-24T10:50:15.634Z,5.03
2018-12-24T10:55:19.795Z,5.38
2018-12-24T11:00:23.966Z,5.30
2018-12-24T11:05:28.170Z,4.78
2018-12-24T11:10:32.427Z,4.47
2018-12-24T11:15:36.686Z,4.43
2018-12-24T11:20:40.865Z,4.79
2018-12-24T11:25:45.026Z,4.40
2018-12-24T11:30:49.220Z,4.24
2018-12-24T11:35:53.615Z,4.58
2018-12-24T11:40:57.878Z,4.26
2018-12-24T11:46:02.089Z,4.36
2018-12-24T11:51:06.250Z,4.22
2018-12-24T11:56:10.417Z,4.05
2018-12-24T12:01:14.618Z,3.95
2018-12-24T12:06:19.822Z,3.78
2018-12-24T12:11:24.272Z,3.71
2018-12-24T12:16:28.465Z,4.30
2018-12-24T12:21:32.685Z,4.13
2018-12-24T12:26:36.931Z,3.96
2018-12-24T12:31:41.090Z,3.73
2018-12-24T12:36:45.224Z,3.68
2018-12-24T12:41:49.641Z,3.36
2018-12-24T12:46:57.339Z,3.53
2018-12-24T12:52:02.070Z,3.68
2018-12-24T12:57:06.217Z,3.55
2018-12-24T13:07:29.048Z,3.15
2018-12-24T13:12:33.224Z,2.91
2018-12-24T13:50:43.096Z,3.02
2018-12-24T13:56:27.652Z,3.19
2018-12-24T14:01:31.416Z,3.38
2018-12-24T14:06:35.213Z,3.34
2018-12-24T14:11:39.021Z,3.03
2018-12-24T14:16:42.848Z,3.03
2018-12-24T14:21:46.591Z,2.98
2018-12-24T14:26:50.310Z,3.02
2018-12-24T14:31:54.037Z,2.61
2018-12-24T14:36:57.740Z,2.75
2018-12-24T14:42:01.464Z,2.87
2018-12-24T14:47:05.205Z,2.74
2018-12-24T14:52:08.915Z,2.60
2018-12-24T14:57:12.630Z,2.78
2018-12-24T15:02:16.359Z,2.79
2018-12-24T15:07:20.078Z,2.93
2018-12-24T15:12:23.831Z,2.76
2018-12-24T15:17:27.554Z,2.76
2018-12-24T15:22:31.296Z,2.49
2018-12-24T15:27:35.012Z,2.47
2018-12-24T15:32:38.855Z,2.69
2018-12-24T15:37:42.565Z,2.93
2018-12-24T15:42:46.313Z,2.40
2018-12-24T15:47:50.029Z,2.49
2018-12-24T15:52:53.748Z,2.50
2018-12-24T15:57:57.488Z,2.55
2018-12-24T16:03:01.228Z,2.53
2018-12-24T16:08:04.956Z,2.40
2018-12-24T16:13:08.676Z,2.42
2018-12-24T16:18:12.412Z,2.65
2018-12-24T16:23:16.143Z,2.52
2018-12-24T16:28:19.867Z,2.49
2018-12-24T16:33:23.613Z,2.35
2018-12-24T16:38:30.399Z,2.43
2018-12-24T16:43:34.164Z,2.54
2018-12-24T16:48:37.928Z,2.41
2018-12-24T16:53:41.671Z,2.59
2018-12-24T16:58:45.460Z,2.65
2018-12-24T17:03:49.183Z,2.60
2018-12-24T17:08:52.914Z,2.71
2018-12-24T17:13:56.646Z,2.50
2018-12-24T17:19:00.378Z,2.72
2018-12-24T17:24:04.104Z,2.74
2018-12-24T17:29:07.879Z,2.67
2018-12-24T17:34:11.710Z,2.55
2018-12-24T17:39:15.542Z,2.60
2018-12-24T17:44:19.314Z,2.52
2018-12-24T17:49:23.050Z,2.66
2018-12-24T17:54:26.861Z,2.52
2018-12-24T17:59:30.656Z,2.53
2018-12-24T18:04:34.382Z,2.51
2018-12-24T18:09:38.101Z,2.41
2018-12-24T18:14:41.822Z,2.52
2018-12-24T18:19:45.587Z,2.48
2018-12-24T18:24:49.310Z,2.39
2018-12-24T18:29:53.020Z,2.48
2018-12-24T18:34:56.724Z,2.42
2018-12-24T18:40:00.438Z,2.65
2018-12-24T18:45:04.287Z,2.48
2018-12-24T18:50:08.393Z,2.40
2018-12-24T18:55:12.111Z,2.46
2018-12-24T19:00:16.057Z,2.39
2018-12-24T19:05:19.840Z,2.51
2018-12-24T19:10:23.679Z,2.59
2018-12-24T19:15:27.397Z,2.59
2018-12-24T19:20:31.155Z,2.57
2018-12-24T19:25:34.949Z,2.48
2018-12-24T19:30:38.669Z,2.48
2018-12-24T19:35:42.486Z,2.23
2018-12-24T19:40:46.237Z,2.32
2018-12-24T19:45:50.088Z,2.17
2018-12-24T19:50:53.844Z,2.22
2018-12-24T19:55:57.715Z,2.25
2018-12-24T20:01:01.441Z,2.28
2018-12-24T20:06:05.196Z,2.43
2018-12-24T20:11:08.926Z,2.37
2018-12-24T20:16:12.643Z,2.44
2018-12-24T20:21:16.397Z,2.47
2018-12-24T20:26:20.137Z,2.45
2018-12-24T20:31:23.945Z,2.41
2018-12-24T20:36:27.658Z,2.19
2018-12-24T20:41:31.401Z,2.27
2018-12-24T20:46:35.193Z,2.31
2018-12-24T20:51:38.945Z,2.29
2018-12-24T20:56:42.719Z,2.37
2018-12-24T21:01:46.486Z,2.45
2018-12-24T21:06:50.303Z,2.42
2018-12-24T21:11:54.141Z,2.36
2018-12-24T21:16:57.967Z,2.40
2018-12-24T21:22:01.800Z,2.31
2018-12-24T21:27:05.674Z,2.44
2018-12-24T21:32:09.491Z,2.36
2018-12-24T21:37:13.323Z,2.49
2018-12-24T21:42:17.160Z,2.52
2018-12-24T21:47:20.941Z,2.52
2018-12-24T21:52:24.843Z,2.53
2018-12-24T21:57:28.705Z,2.57
2018-12-24T22:02:32.490Z,2.56
2018-12-24T22:07:36.343Z,2.58
2018-12-24T22:12:40.151Z,2.64
2018-12-24T22:17:43.904Z,2.58
2018-12-24T22:22:47.754Z,2.56
2018-12-24T22:27:51.513Z,2.57
2018-12-24T22:32:55.335Z,2.59
2018-12-24T22:37:59.105Z,2.67
2018-12-24T22:43:02.920Z,2.68
2018-12-24T22:48:06.762Z,2.68
2018-12-24T22:53:10.592Z,2.54
2018-12-24T22:58:14.421Z,2.64
2018-12-24T23:03:18.239Z,2.69
2018-12-24T23:08:22.050Z,2.71
2018-12-24T23:13:25.767Z,2.74
2018-12-24T23:18:29.615Z,2.68
2018-12-24T23:23:33.506Z,2.73
2018-12-24T23:28:37.323Z,2.77
2018-12-24T23:33:41.139Z,2.65
2018-12-24T23:38:45.026Z,2.72
2018-12-24T23:43:48.873Z,2.67
2018-12-24T23:48:57.665Z,2.72
2018-12-24T23:53:58.316Z,2.73
2018-12-24T23:59:02.094Z,2.73
